sensor_id;sensor_type;location;lat;lon;timestamp;P1;durP1;ratioP1;P2;durP2;ratioP2
46230;SDS011;31949;51.404;-0.038;2022-11-20T00:01:10;10.40;;;5.47;;
46230;SDS011;31949;51.404;-0.038;2022-11-20T00:03:45;8.25;;;5.07;;
46230;SDS011;31949;51.404;-0.038;2022-11-20T00:06:13;12.85;;;5.32;;
46230;SDS011;31949;51.404;-0.038;2022-11-20T00:08:41;8.77;;;5.30;;
46230;SDS011;31949;51.404;-0.038;2022-11-20T00:11:16;10.55;;;5.57;;
46230;SDS011;31949;51.404;-0.038;2022-11-20T00:13:46;10.50;;;5.18;;
46230;SDS011;31949;51.404;-0.038;2022-11-20T00:16:15;12.45;;;5.03;;
46230;SDS011;31949;51.404;-0.038;2022-11-20T00:18:44;12.82;;;5.22;;
46230;SDS011;31949;51.404;-0.038;2022-11-20T00:21:18;9.93;;;4.47;;
46230;SDS011;31949;51.404;-0.038;2022-11-20T00:23:48;6.82;;;4.05;;
46230;SDS011;31949;51.404;-0.038;2022-11-20T00:26:19;12.68;;;4.38;;
46230;SDS011;31949;51.404;-0.038;2022-11-20T00:28:52;7.85;;;3.67;;
46230;SDS011;31949;51.404;-0.038;2022-11-20T00:31:21;6.60;;;4.22;;
46230;SDS011;31949;51.404;-0.038;2022-11-20T00:33:49;7.13;;;4.03;;
46230;SDS011;31949;51.404;-0.038;2022-11-20T00:36:17;6.97;;;4.28;;
46230;SDS011;31949;51.404;-0.038;2022-11-20T00:38:46;8.43;;;4.75;;
46230;SDS011;31949;51.404;-0.038;2022-11-20T00:41:17;13.77;;;5.93;;
46230;SDS011;31949;51.404;-0.038;2022-11-20T00:43:45;11.10;;;4.85;;
46230;SDS011;31949;51.404;-0.038;2022-11-20T00:46:13;8.57;;;4.45;;
46230;SDS011;31949;51.404;-0.038;2022-11-20T00:48:41;5.50;;;3.60;;
46230;SDS011;31949;51.404;-0.038;2022-11-20T00:51:10;7.75;;;4.20;;
46230;SDS011;31949;51.404;-0.038;2022-11-20T00:53:39;6.00;;;3.22;;
46230;SDS011;31949;51.404;-0.038;2022-11-20T00:56:08;8.23;;;4.07;;
46230;SDS011;31949;51.404;-0.038;2022-11-20T00:58:39;9.32;;;3.90;;
46230;SDS011;31949;51.404;-0.038;2022-11-20T01:01:12;7.10;;;3.58;;
46230;SDS011;31949;51.404;-0.038;2022-11-20T01:03:45;6.35;;;3.53;;
46230;SDS011;31949;51.404;-0.038;2022-11-20T01:06:21;8.48;;;3.15;;
46230;SDS011;31949;51.404;-0.038;2022-11-20T01:08:50;5.43;;;3.40;;
46230;SDS011;31949;51.404;-0.038;2022-11-20T01:11:20;5.28;;;3.22;;
46230;SDS011;31949;51.404;-0.038;2022-11-20T01:13:49;4.78;;;3.17;;
46230;SDS011;31949;51.404;-0.038;2022-11-20T01:16:21;6.10;;;3.45;;
46230;SDS011;31949;51.404;-0.038;2022-11-20T01:18:55;6.82;;;3.13;;
46230;SDS011;31949;51.404;-0.038;2022-11-20T01:21:25;7.30;;;2.60;;
46230;SDS011;31949;51.404;-0.038;2022-11-20T01:23:57;4.70;;;2.95;;
46230;SDS011;31949;51.404;-0.038;2022-11-20T01:26:29;7.38;;;3.55;;
46230;SDS011;31949;51.404;-0.038;2022-11-20T01:28:58;6.60;;;2.80;;
46230;SDS011;31949;51.404;-0.038;2022-11-20T01:31:32;8.38;;;2.97;;
46230;SDS011;31949;51.404;-0.038;2022-11-20T01:34:03;12.73;;;3.33;;
46230;SDS011;31949;51.404;-0.038;2022-11-20T01:36:35;4.82;;;3.08;;
46230;SDS011;31949;51.404;-0.038;2022-11-20T01:39:05;4.72;;;2.20;;
46230;SDS011;31949;51.404;-0.038;2022-11-20T01:41:34;6.50;;;3.33;;
46230;SDS011;31949;51.404;-0.038;2022-11-20T01:44:21;6.85;;;2.53;;
46230;SDS011;31949;51.404;-0.038;2022-11-20T01:47:09;5.90;;;2.45;;
46230;SDS011;31949;51.404;-0.038;2022-11-20T01:49:42;4.78;;;2.40;;
46230;SDS011;31949;51.404;-0.038;2022-11-20T01:52:15;4.50;;;2.30;;
46230;SDS011;31949;51.404;-0.038;2022-11-20T01:55:04;3.97;;;2.47;;
46230;SDS011;31949;51.404;-0.038;2022-11-20T01:57:36;4.57;;;2.22;;
46230;SDS011;31949;51.404;-0.038;2022-11-20T02:00:09;8.07;;;2.53;;
46230;SDS011;31949;51.404;-0.038;2022-11-20T02:02:39;9.30;;;2.58;;
46230;SDS011;31949;51.404;-0.038;2022-11-20T02:05:14;6.30;;;2.67;;
46230;SDS011;31949;51.404;-0.038;2022-11-20T02:07:54;5.22;;;2.40;;
46230;SDS011;31949;51.404;-0.038;2022-11-20T02:10:24;7.15;;;2.88;;
46230;SDS011;31949;51.404;-0.038;2022-11-20T02:12:54;4.88;;;2.38;;
46230;SDS011;31949;51.404;-0.038;2022-11-20T02:15:40;3.28;;;2.15;;
46230;SDS011;31949;51.404;-0.038;2022-11-20T02:18:07;6.65;;;2.15;;
46230;SDS011;31949;51.404;-0.038;2022-11-20T02:20:36;4.07;;;2.20;;
46230;SDS011;31949;51.404;-0.038;2022-11-20T02:23:05;4.28;;;1.90;;
46230;SDS011;31949;51.404;-0.038;2022-11-20T02:25:52;3.65;;;2.10;;
46230;SDS011;31949;51.404;-0.038;2022-11-20T02:28:22;9.45;;;2.15;;
46230;SDS011;31949;51.404;-0.038;2022-11-20T02:30:49;3.78;;;1.90;;
46230;SDS011;31949;51.404;-0.038;2022-11-20T02:33:16;3.90;;;1.80;;
46230;SDS011;31949;51.404;-0.038;2022-11-20T02:35:45;5.82;;;2.15;;
46230;SDS011;31949;51.404;-0.038;2022-11-20T02:38:13;2.30;;;1.55;;
46230;SDS011;31949;51.404;-0.038;2022-11-20T02:40:41;5.03;;;1.55;;
46230;SDS011;31949;51.404;-0.038;2022-11-20T02:43:09;2.90;;;1.83;;
46230;SDS011;31949;51.404;-0.038;2022-11-20T02:45:36;5.65;;;1.83;;
46230;SDS011;31949;51.404;-0.038;2022-11-20T02:48:05;2.92;;;1.90;;
46230;SDS011;31949;51.404;-0.038;2022-11-20T02:50:36;4.97;;;1.48;;
46230;SDS011;31949;51.404;-0.038;2022-11-20T02:53:04;6.57;;;1.88;;
46230;SDS011;31949;51.404;-0.038;2022-11-20T02:55:32;5.95;;;1.88;;
46230;SDS011;31949;51.404;-0.038;2022-11-20T02:57:59;6.00;;;1.67;;
46230;SDS011;31949;51.404;-0.038;2022-11-20T03:00:26;3.72;;;1.33;;
46230;SDS011;31949;51.404;-0.038;2022-11-20T03:02:53;3.88;;;1.75;;
46230;SDS011;31949;51.404;-0.038;2022-11-20T03:05:20;5.03;;;1.77;;
46230;SDS011;31949;51.404;-0.038;2022-11-20T03:07:48;2.83;;;1.95;;
46230;SDS011;31949;51.404;-0.038;2022-11-20T03:10:15;2.75;;;1.40;;
46230;SDS011;31949;51.404;-0.038;2022-11-20T03:12:42;3.42;;;1.48;;
46230;SDS011;31949;51.404;-0.038;2022-11-20T03:15:09;3.65;;;1.85;;
46230;SDS011;31949;51.404;-0.038;2022-11-20T03:17:37;4.28;;;1.88;;
46230;SDS011;31949;51.404;-0.038;2022-11-20T03:20:04;3.88;;;1.25;;
46230;SDS011;31949;51.404;-0.038;2022-11-20T03:22:32;3.97;;;1.45;;
46230;SDS011;31949;51.404;-0.038;2022-11-20T03:24:59;3.08;;;0.80;;
46230;SDS011;31949;51.404;-0.038;2022-11-20T03:27:26;2.45;;;0.85;;
46230;SDS011;31949;51.404;-0.038;2022-11-20T03:29:53;2.85;;;0.73;;
46230;SDS011;31949;51.404;-0.038;2022-11-20T03:32:20;1.77;;;1.00;;
46230;SDS011;31949;51.404;-0.038;2022-11-20T03:34:47;6.93;;;1.55;;
46230;SDS011;31949;51.404;-0.038;2022-11-20T03:37:15;6.25;;;1.92;;
46230;SDS011;31949;51.404;-0.038;2022-11-20T03:39:42;3.55;;;1.15;;
46230;SDS011;31949;51.404;-0.038;2022-11-20T03:42:09;2.22;;;0.70;;
46230;SDS011;31949;51.404;-0.038;2022-11-20T03:44:56;4.20;;;0.90;;
46230;SDS011;31949;51.404;-0.038;2022-11-20T03:47:23;5.47;;;1.17;;
46230;SDS011;31949;51.404;-0.038;2022-11-20T03:49:50;1.95;;;0.85;;
46230;SDS011;31949;51.404;-0.038;2022-11-20T03:52:17;3.80;;;1.38;;
46230;SDS011;31949;51.404;-0.038;2022-11-20T03:54:44;2.97;;;1.00;;
46230;SDS011;31949;51.404;-0.038;2022-11-20T03:57:11;2.53;;;1.15;;
46230;SDS011;31949;51.404;-0.038;2022-11-20T03:59:39;3.75;;;1.08;;
46230;SDS011;31949;51.404;-0.038;2022-11-20T04:02:06;1.92;;;1.00;;
46230;SDS011;31949;51.404;-0.038;2022-11-20T04:04:33;5.65;;;2.33;;
46230;SDS011;31949;51.404;-0.038;2022-11-20T04:07:00;2.20;;;1.42;;
46230;SDS011;31949;51.404;-0.038;2022-11-20T04:09:27;3.22;;;1.33;;
46230;SDS011;31949;51.404;-0.038;2022-11-20T04:11:54;3.70;;;1.20;;
46230;SDS011;31949;51.404;-0.038;2022-11-20T04:14:21;4.88;;;1.60;;
46230;SDS011;31949;51.404;-0.038;2022-11-20T04:16:48;5.22;;;1.42;;
46230;SDS011;31949;51.404;-0.038;2022-11-20T04:19:16;5.78;;;1.55;;
46230;SDS011;31949;51.404;-0.038;2022-11-20T04:21:44;2.95;;;1.60;;
46230;SDS011;31949;51.404;-0.038;2022-11-20T04:24:11;3.25;;;1.40;;
46230;SDS011;31949;51.404;-0.038;2022-11-20T04:26:38;4.25;;;1.27;;
46230;SDS011;31949;51.404;-0.038;2022-11-20T04:29:06;3.45;;;1.15;;
46230;SDS011;31949;51.404;-0.038;2022-11-20T04:31:33;5.57;;;1.50;;
46230;SDS011;31949;51.404;-0.038;2022-11-20T04:34:05;3.33;;;1.20;;
46230;SDS011;31949;51.404;-0.038;2022-11-20T04:36:34;3.38;;;1.45;;
46230;SDS011;31949;51.404;-0.038;2022-11-20T04:39:02;3.47;;;1.00;;
46230;SDS011;31949;51.404;-0.038;2022-11-20T04:41:32;3.63;;;1.25;;
46230;SDS011;31949;51.404;-0.038;2022-11-20T04:44:02;3.10;;;1.33;;
46230;SDS011;31949;51.404;-0.038;2022-11-20T04:46:32;3.00;;;1.40;;
46230;SDS011;31949;51.404;-0.038;2022-11-20T04:49:03;2.08;;;1.20;;
46230;SDS011;31949;51.404;-0.038;2022-11-20T04:51:37;2.35;;;1.35;;
46230;SDS011;31949;51.404;-0.038;2022-11-20T04:54:06;2.40;;;1.27;;
46230;SDS011;31949;51.404;-0.038;2022-11-20T04:56:34;3.97;;;1.50;;
46230;SDS011;31949;51.404;-0.038;2022-11-20T04:59:02;3.90;;;1.10;;
46230;SDS011;31949;51.404;-0.038;2022-11-20T05:01:29;1.92;;;0.90;;
46230;SDS011;31949;51.404;-0.038;2022-11-20T05:03:57;5.32;;;1.35;;
46230;SDS011;31949;51.404;-0.038;2022-11-20T05:06:24;3.70;;;1.55;;
46230;SDS011;31949;51.404;-0.038;2022-11-20T05:08:51;2.35;;;1.17;;
46230;SDS011;31949;51.404;-0.038;2022-11-20T05:11:19;2.35;;;0.98;;
46230;SDS011;31949;51.404;-0.038;2022-11-20T05:13:48;5.03;;;1.00;;
46230;SDS011;31949;51.404;-0.038;2022-11-20T05:16:17;3.05;;;1.20;;
46230;SDS011;31949;51.404;-0.038;2022-11-20T05:18:46;2.55;;;1.40;;
46230;SDS011;31949;51.404;-0.038;2022-11-20T05:21:14;2.08;;;1.00;;
46230;SDS011;31949;51.404;-0.038;2022-11-20T05:23:42;5.40;;;1.73;;
46230;SDS011;31949;51.404;-0.038;2022-11-20T05:26:20;2.58;;;1.63;;
46230;SDS011;31949;51.404;-0.038;2022-11-20T05:28:48;3.65;;;1.33;;
46230;SDS011;31949;51.404;-0.038;2022-11-20T05:31:20;8.68;;;1.70;;
46230;SDS011;31949;51.404;-0.038;2022-11-20T05:33:53;2.83;;;1.23;;
46230;SDS011;31949;51.404;-0.038;2022-11-20T05:36:22;3.28;;;1.35;;
46230;SDS011;31949;51.404;-0.038;2022-11-20T05:38:49;3.20;;;1.25;;
46230;SDS011;31949;51.404;-0.038;2022-11-20T05:41:19;2.50;;;1.20;;
46230;SDS011;31949;51.404;-0.038;2022-11-20T05:43:47;3.60;;;1.08;;
46230;SDS011;31949;51.404;-0.038;2022-11-20T05:46:19;4.75;;;1.67;;
46230;SDS011;31949;51.404;-0.038;2022-11-20T05:48:54;3.03;;;1.48;;
46230;SDS011;31949;51.404;-0.038;2022-11-20T05:51:21;3.72;;;1.30;;
46230;SDS011;31949;51.404;-0.038;2022-11-20T05:53:48;9.95;;;2.30;;
46230;SDS011;31949;51.404;-0.038;2022-11-20T05:56:16;2.40;;;1.05;;
46230;SDS011;31949;51.404;-0.038;2022-11-20T05:58:46;2.92;;;1.10;;
46230;SDS011;31949;51.404;-0.038;2022-11-20T06:01:16;2.45;;;1.30;;
46230;SDS011;31949;51.404;-0.038;2022-11-20T06:03:46;1.95;;;1.35;;
46230;SDS011;31949;51.404;-0.038;2022-11-20T06:06:14;3.65;;;1.65;;
46230;SDS011;31949;51.404;-0.038;2022-11-20T06:08:43;3.58;;;1.23;;
46230;SDS011;31949;51.404;-0.038;2022-11-20T06:11:11;2.70;;;1.45;;
46230;SDS011;31949;51.404;-0.038;2022-11-20T06:13:39;4.82;;;1.58;;
46230;SDS011;31949;51.404;-0.038;2022-11-20T06:16:08;1.90;;;1.00;;
46230;SDS011;31949;51.404;-0.038;2022-11-20T06:18:36;3.35;;;1.30;;
46230;SDS011;31949;51.404;-0.038;2022-11-20T06:21:08;1.42;;;0.90;;
46230;SDS011;31949;51.404;-0.038;2022-11-20T06:23:37;1.92;;;1.00;;
46230;SDS011;31949;51.404;-0.038;2022-11-20T06:26:09;2.50;;;0.90;;
46230;SDS011;31949;51.404;-0.038;2022-11-20T06:28:38;3.15;;;1.02;;
46230;SDS011;31949;51.404;-0.038;2022-11-20T06:31:05;2.08;;;1.15;;
46230;SDS011;31949;51.404;-0.038;2022-11-20T06:33:34;2.08;;;1.08;;
46230;SDS011;31949;51.404;-0.038;2022-11-20T06:36:01;1.85;;;1.42;;
46230;SDS011;31949;51.404;-0.038;2022-11-20T06:38:36;3.80;;;1.30;;
46230;SDS011;31949;51.404;-0.038;2022-11-20T06:41:06;2.67;;;1.23;;
46230;SDS011;31949;51.404;-0.038;2022-11-20T06:43:36;3.08;;;1.42;;
46230;SDS011;31949;51.404;-0.038;2022-11-20T06:46:04;1.85;;;1.10;;
46230;SDS011;31949;51.404;-0.038;2022-11-20T06:48:31;2.72;;;1.55;;
46230;SDS011;31949;51.404;-0.038;2022-11-20T06:50:58;2.88;;;1.25;;
46230;SDS011;31949;51.404;-0.038;2022-11-20T06:53:25;2.20;;;1.77;;
46230;SDS011;31949;51.404;-0.038;2022-11-20T06:55:55;1.33;;;1.00;;
46230;SDS011;31949;51.404;-0.038;2022-11-20T06:58:23;1.83;;;0.90;;
46230;SDS011;31949;51.404;-0.038;2022-11-20T07:00:52;1.75;;;0.88;;
46230;SDS011;31949;51.404;-0.038;2022-11-20T07:03:19;2.72;;;1.10;;
46230;SDS011;31949;51.404;-0.038;2022-11-20T07:05:46;1.45;;;0.82;;
46230;SDS011;31949;51.404;-0.038;2022-11-20T07:08:14;2.72;;;0.80;;
46230;SDS011;31949;51.404;-0.038;2022-11-20T07:10:41;2.28;;;0.85;;
46230;SDS011;31949;51.404;-0.038;2022-11-20T07:13:08;1.52;;;0.90;;
46230;SDS011;31949;51.404;-0.038;2022-11-20T07:15:35;1.30;;;1.20;;
46230;SDS011;31949;51.404;-0.038;2022-11-20T07:18:02;2.55;;;1.25;;
46230;SDS011;31949;51.404;-0.038;2022-11-20T07:20:29;1.80;;;0.80;;
46230;SDS011;31949;51.404;-0.038;2022-11-20T07:22:57;2.20;;;0.90;;
46230;SDS011;31949;51.404;-0.038;2022-11-20T07:25:25;1.45;;;0.80;;
46230;SDS011;31949;51.404;-0.038;2022-11-20T07:27:56;3.17;;;0.85;;
46230;SDS011;31949;51.404;-0.038;2022-11-20T07:30:27;0.80;;;0.57;;
46230;SDS011;31949;51.404;-0.038;2022-11-20T07:32:55;2.30;;;1.00;;
46230;SDS011;31949;51.404;-0.038;2022-11-20T07:35:26;4.25;;;1.27;;
46230;SDS011;31949;51.404;-0.038;2022-11-20T07:37:53;4.97;;;1.40;;
46230;SDS011;31949;51.404;-0.038;2022-11-20T07:40:20;3.03;;;1.30;;
46230;SDS011;31949;51.404;-0.038;2022-11-20T07:42:48;3.22;;;1.15;;
46230;SDS011;31949;51.404;-0.038;2022-11-20T07:45:19;3.47;;;1.35;;
46230;SDS011;31949;51.404;-0.038;2022-11-20T07:47:48;1.40;;;1.08;;
46230;SDS011;31949;51.404;-0.038;2022-11-20T07:50:16;2.38;;;0.70;;
46230;SDS011;31949;51.404;-0.038;2022-11-20T07:52:44;0.65;;;0.65;;
46230;SDS011;31949;51.404;-0.038;2022-11-20T07:55:11;1.33;;;0.70;;
46230;SDS011;31949;51.404;-0.038;2022-11-20T07:57:39;0.93;;;0.77;;
46230;SDS011;31949;51.404;-0.038;2022-11-20T08:00:07;0.60;;;0.52;;
46230;SDS011;31949;51.404;-0.038;2022-11-20T08:02:41;2.10;;;0.70;;
46230;SDS011;31949;51.404;-0.038;2022-11-20T08:05:09;1.35;;;0.88;;
46230;SDS011;31949;51.404;-0.038;2022-11-20T08:07:40;0.52;;;0.47;;
46230;SDS011;31949;51.404;-0.038;2022-11-20T08:10:10;0.40;;;0.32;;
46230;SDS011;31949;51.404;-0.038;2022-11-20T08:12:46;0.30;;;0.30;;
46230;SDS011;31949;51.404;-0.038;2022-11-20T08:15:33;1.30;;;0.30;;
46230;SDS011;31949;51.404;-0.038;2022-11-20T08:18:08;0.40;;;0.35;;
46230;SDS011;31949;51.404;-0.038;2022-11-20T08:20:56;1.20;;;0.52;;
46230;SDS011;31949;51.404;-0.038;2022-11-20T08:23:24;1.25;;;0.80;;
46230;SDS011;31949;51.404;-0.038;2022-11-20T08:25:51;0.82;;;0.50;;
46230;SDS011;31949;51.404;-0.038;2022-11-20T08:28:18;0.77;;;0.60;;
46230;SDS011;31949;51.404;-0.038;2022-11-20T08:30:48;0.90;;;0.60;;
46230;SDS011;31949;51.404;-0.038;2022-11-20T08:33:17;1.73;;;0.73;;
46230;SDS011;31949;51.404;-0.038;2022-11-20T08:35:45;1.23;;;0.50;;
46230;SDS011;31949;51.404;-0.038;2022-11-20T08:38:12;0.90;;;0.70;;
46230;SDS011;31949;51.404;-0.038;2022-11-20T08:40:39;0.98;;;0.90;;
46230;SDS011;31949;51.404;-0.038;2022-11-20T08:43:06;1.60;;;1.30;;
46230;SDS011;31949;51.404;-0.038;2022-11-20T08:45:33;1.45;;;1.25;;
46230;SDS011;31949;51.404;-0.038;2022-11-20T08:48:02;1.55;;;1.15;;
46230;SDS011;31949;51.404;-0.038;2022-11-20T08:50:30;2.35;;;1.73;;
46230;SDS011;31949;51.404;-0.038;2022-11-20T08:53:04;1.75;;;1.52;;
46230;SDS011;31949;51.404;-0.038;2022-11-20T08:55:32;3.15;;;1.92;;
46230;SDS011;31949;51.404;-0.038;2022-11-20T08:58:08;2.38;;;1.95;;
46230;SDS011;31949;51.404;-0.038;2022-11-20T09:00:35;1.90;;;1.80;;
46230;SDS011;31949;51.404;-0.038;2022-11-20T09:03:03;3.03;;;2.30;;
46230;SDS011;31949;51.404;-0.038;2022-11-20T09:05:30;2.42;;;2.22;;
46230;SDS011;31949;51.404;-0.038;2022-11-20T09:07:58;1.83;;;1.65;;
46230;SDS011;31949;51.404;-0.038;2022-11-20T09:10:27;3.22;;;2.33;;
46230;SDS011;31949;51.404;-0.038;2022-11-20T09:12:54;3.75;;;2.70;;
46230;SDS011;31949;51.404;-0.038;2022-11-20T09:15:22;2.92;;;2.20;;
46230;SDS011;31949;51.404;-0.038;2022-11-20T09:17:51;3.03;;;2.45;;
46230;SDS011;31949;51.404;-0.038;2022-11-20T09:20:22;3.25;;;2.28;;
46230;SDS011;31949;51.404;-0.038;2022-11-20T09:22:50;5.25;;;3.05;;
46230;SDS011;31949;51.404;-0.038;2022-11-20T09:25:18;4.25;;;3.22;;
46230;SDS011;31949;51.404;-0.038;2022-11-20T09:27:45;6.05;;;3.35;;
46230;SDS011;31949;51.404;-0.038;2022-11-20T09:30:15;5.32;;;3.05;;
46230;SDS011;31949;51.404;-0.038;2022-11-20T09:32:42;7.10;;;4.03;;
46230;SDS011;31949;51.404;-0.038;2022-11-20T09:35:10;6.60;;;3.72;;
46230;SDS011;31949;51.404;-0.038;2022-11-20T09:37:40;6.20;;;4.15;;
46230;SDS011;31949;51.404;-0.038;2022-11-20T09:40:16;6.63;;;3.97;;
46230;SDS011;31949;51.404;-0.038;2022-11-20T09:51:36;6.85;;;3.28;;
46230;SDS011;31949;51.404;-0.038;2022-11-20T09:56:37;7.18;;;3.90;;
46230;SDS011;31949;51.404;-0.038;2022-11-20T09:59:07;9.50;;;4.00;;
46230;SDS011;31949;51.404;-0.038;2022-11-20T10:07:58;4.78;;;2.53;;
46230;SDS011;31949;51.404;-0.038;2022-11-20T10:11:04;7.65;;;3.10;;
46230;SDS011;31949;51.404;-0.038;2022-11-20T10:25:34;8.60;;;4.13;;
46230;SDS011;31949;51.404;-0.038;2022-11-20T10:30:54;8.65;;;4.10;;
46230;SDS011;31949;51.404;-0.038;2022-11-20T10:33:39;9.18;;;3.17;;
46230;SDS011;31949;51.404;-0.038;2022-11-20T10:36:30;9.15;;;3.25;;
46230;SDS011;31949;51.404;-0.038;2022-11-20T10:39:06;9.05;;;3.28;;
46230;SDS011;31949;51.404;-0.038;2022-11-20T10:41:44;7.40;;;2.75;;
46230;SDS011;31949;51.404;-0.038;2022-11-20T10:44:17;5.43;;;3.63;;
46230;SDS011;31949;51.404;-0.038;2022-11-20T10:47:11;11.05;;;3.45;;
46230;SDS011;31949;51.404;-0.038;2022-11-20T10:49:41;6.00;;;2.83;;
46230;SDS011;31949;51.404;-0.038;2022-11-20T10:52:21;12.48;;;4.15;;
46230;SDS011;31949;51.404;-0.038;2022-11-20T10:58:10;8.43;;;3.38;;
46230;SDS011;31949;51.404;-0.038;2022-11-20T11:00:46;14.00;;;3.95;;
46230;SDS011;31949;51.404;-0.038;2022-11-20T11:03:27;11.30;;;3.03;;
46230;SDS011;31949;51.404;-0.038;2022-11-20T11:08:36;14.43;;;2.95;;
46230;SDS011;31949;51.404;-0.038;2022-11-20T11:11:12;10.77;;;2.28;;
46230;SDS011;31949;51.404;-0.038;2022-11-20T11:13:48;12.43;;;3.25;;
46230;SDS011;31949;51.404;-0.038;2022-11-20T11:16:25;9.98;;;2.80;;
46230;SDS011;31949;51.404;-0.038;2022-11-20T11:19:05;14.98;;;3.35;;
46230;SDS011;31949;51.404;-0.038;2022-11-20T11:21:37;10.07;;;2.95;;
46230;SDS011;31949;51.404;-0.038;2022-11-20T11:24:15;10.88;;;2.67;;
46230;SDS011;31949;51.404;-0.038;2022-11-20T11:27:12;16.05;;;2.58;;
46230;SDS011;31949;51.404;-0.038;2022-11-20T11:29:45;13.18;;;3.67;;
46230;SDS011;31949;51.404;-0.038;2022-11-20T11:32:17;14.98;;;4.35;;
46230;SDS011;31949;51.404;-0.038;2022-11-20T11:35:03;18.10;;;4.15;;
46230;SDS011;31949;51.404;-0.038;2022-11-20T11:37:33;10.43;;;2.70;;
46230;SDS011;31949;51.404;-0.038;2022-11-20T11:40:05;17.67;;;3.55;;
46230;SDS011;31949;51.404;-0.038;2022-11-20T11:42:54;13.77;;;2.60;;
46230;SDS011;31949;51.404;-0.038;2022-11-20T11:45:26;17.65;;;3.33;;
46230;SDS011;31949;51.404;-0.038;2022-11-20T11:47:54;16.10;;;3.40;;
46230;SDS011;31949;51.404;-0.038;2022-11-20T11:50:28;14.52;;;3.72;;
46230;SDS011;31949;51.404;-0.038;2022-11-20T11:58:34;14.20;;;3.50;;
46230;SDS011;31949;51.404;-0.038;2022-11-20T12:01:48;9.25;;;2.83;;
46230;SDS011;31949;51.404;-0.038;2022-11-20T12:04:07;21.33;;;3.75;;
46230;SDS011;31949;51.404;-0.038;2022-11-20T12:06:42;12.15;;;3.70;;
46230;SDS011;31949;51.404;-0.038;2022-11-20T12:09:11;17.10;;;4.17;;
46230;SDS011;31949;51.404;-0.038;2022-11-20T12:14:38;13.52;;;3.33;;
46230;SDS011;31949;51.404;-0.038;2022-11-20T12:17:09;16.65;;;3.28;;
46230;SDS011;31949;51.404;-0.038;2022-11-20T12:19:38;20.92;;;5.32;;
46230;SDS011;31949;51.404;-0.038;2022-11-20T12:22:13;16.08;;;3.20;;
46230;SDS011;31949;51.404;-0.038;2022-11-20T12:25:14;14.55;;;4.00;;
46230;SDS011;31949;51.404;-0.038;2022-11-20T12:30:41;17.02;;;5.15;;
46230;SDS011;31949;51.404;-0.038;2022-11-20T12:33:38;14.40;;;3.25;;
46230;SDS011;31949;51.404;-0.038;2022-11-20T12:39:07;16.90;;;3.63;;
46230;SDS011;31949;51.404;-0.038;2022-11-20T12:53:44;22.83;;;4.63;;
46230;SDS011;31949;51.404;-0.038;2022-11-20T13:01:52;14.35;;;3.75;;
46230;SDS011;31949;51.404;-0.038;2022-11-20T13:04:49;8.88;;;2.90;;
46230;SDS011;31949;51.404;-0.038;2022-11-20T13:07:39;12.48;;;3.35;;
46230;SDS011;31949;51.404;-0.038;2022-11-20T13:10:16;15.13;;;3.70;;
46230;SDS011;31949;51.404;-0.038;2022-11-20T13:16:02;13.77;;;3.50;;
46230;SDS011;31949;51.404;-0.038;2022-11-20T13:18:38;14.90;;;2.80;;
46230;SDS011;31949;51.404;-0.038;2022-11-20T13:23:43;11.52;;;2.50;;
46230;SDS011;31949;51.404;-0.038;2022-11-20T13:31:38;11.32;;;2.70;;
46230;SDS011;31949;51.404;-0.038;2022-11-20T13:36:49;11.32;;;2.95;;
46230;SDS011;31949;51.404;-0.038;2022-11-20T13:39:24;20.73;;;3.80;;
46230;SDS011;31949;51.404;-0.038;2022-11-20T13:41:59;13.20;;;3.58;;
46230;SDS011;31949;51.404;-0.038;2022-11-20T13:44:36;14.25;;;3.42;;
46230;SDS011;31949;51.404;-0.038;2022-11-20T13:47:24;16.65;;;3.35;;
46230;SDS011;31949;51.404;-0.038;2022-11-20T13:49:54;14.23;;;3.03;;
46230;SDS011;31949;51.404;-0.038;2022-11-20T13:55:38;11.70;;;2.90;;
46230;SDS011;31949;51.404;-0.038;2022-11-20T14:01:08;11.98;;;3.70;;
46230;SDS011;31949;51.404;-0.038;2022-11-20T14:03:45;18.23;;;3.70;;
46230;SDS011;31949;51.404;-0.038;2022-11-20T14:06:32;14.70;;;3.47;;
46230;SDS011;31949;51.404;-0.038;2022-11-20T14:09:13;15.75;;;3.53;;
46230;SDS011;31949;51.404;-0.038;2022-11-20T14:11:57;15.18;;;3.22;;
46230;SDS011;31949;51.404;-0.038;2022-11-20T14:14:28;18.23;;;3.25;;
46230;SDS011;31949;51.404;-0.038;2022-11-20T14:17:17;10.85;;;2.97;;
46230;SDS011;31949;51.404;-0.038;2022-11-20T14:19:49;11.50;;;3.17;;
46230;SDS011;31949;51.404;-0.038;2022-11-20T14:22:22;13.10;;;4.20;;
46230;SDS011;31949;51.404;-0.038;2022-11-20T14:27:54;13.00;;;3.20;;
46230;SDS011;31949;51.404;-0.038;2022-11-20T14:30:26;9.90;;;3.28;;
46230;SDS011;31949;51.404;-0.038;2022-11-20T14:33:03;15.80;;;3.40;;
46230;SDS011;31949;51.404;-0.038;2022-11-20T14:35:34;13.23;;;3.85;;
46230;SDS011;31949;51.404;-0.038;2022-11-20T14:38:08;14.25;;;4.13;;
46230;SDS011;31949;51.404;-0.038;2022-11-20T14:40:40;10.10;;;3.58;;
46230;SDS011;31949;51.404;-0.038;2022-11-20T14:46:02;9.35;;;3.22;;
46230;SDS011;31949;51.404;-0.038;2022-11-20T14:48:43;13.30;;;3.80;;
46230;SDS011;31949;51.404;-0.038;2022-11-20T14:54:10;15.93;;;4.97;;
46230;SDS011;31949;51.404;-0.038;2022-11-20T14:56:40;12.32;;;4.05;;
46230;SDS011;31949;51.404;-0.038;2022-11-20T14:59:08;15.48;;;3.95;;
46230;SDS011;31949;51.404;-0.038;2022-11-20T15:01:36;17.70;;;4.63;;
46230;SDS011;31949;51.404;-0.038;2022-11-20T15:04:09;9.30;;;3.30;;
46230;SDS011;31949;51.404;-0.038;2022-11-20T15:06:38;10.93;;;3.17;;
46230;SDS011;31949;51.404;-0.038;2022-11-20T15:09:17;9.35;;;3.28;;
46230;SDS011;31949;51.404;-0.038;2022-11-20T15:11:57;12.82;;;2.83;;
46230;SDS011;31949;51.404;-0.038;2022-11-20T15:14:27;18.77;;;4.50;;
46230;SDS011;31949;51.404;-0.038;2022-11-20T15:16:55;12.45;;;3.15;;
46230;SDS011;31949;51.404;-0.038;2022-11-20T15:19:24;12.23;;;3.60;;
46230;SDS011;31949;51.404;-0.038;2022-11-20T15:21:53;12.88;;;3.35;;
46230;SDS011;31949;51.404;-0.038;2022-11-20T15:24:20;8.73;;;3.10;;
46230;SDS011;31949;51.404;-0.038;2022-11-20T15:26:47;9.52;;;3.35;;
46230;SDS011;31949;51.404;-0.038;2022-11-20T15:29:15;12.18;;;3.13;;
46230;SDS011;31949;51.404;-0.038;2022-11-20T15:31:47;10.23;;;3.25;;
46230;SDS011;31949;51.404;-0.038;2022-11-20T15:34:15;15.10;;;4.38;;
46230;SDS011;31949;51.404;-0.038;2022-11-20T15:36:42;17.05;;;3.67;;
46230;SDS011;31949;51.404;-0.038;2022-11-20T15:39:10;6.53;;;3.63;;
46230;SDS011;31949;51.404;-0.038;2022-11-20T15:41:38;18.80;;;4.20;;
46230;SDS011;31949;51.404;-0.038;2022-11-20T15:44:05;10.77;;;3.20;;
46230;SDS011;31949;51.404;-0.038;2022-11-20T15:46:34;13.57;;;3.83;;
46230;SDS011;31949;51.404;-0.038;2022-11-20T15:49:05;18.63;;;5.40;;
46230;SDS011;31949;51.404;-0.038;2022-11-20T15:51:38;16.02;;;4.20;;
46230;SDS011;31949;51.404;-0.038;2022-11-20T15:54:09;14.52;;;4.18;;
46230;SDS011;31949;51.404;-0.038;2022-11-20T15:56:38;6.05;;;3.00;;
46230;SDS011;31949;51.404;-0.038;2022-11-20T15:59:05;8.95;;;3.10;;
46230;SDS011;31949;51.404;-0.038;2022-11-20T16:01:32;13.95;;;3.33;;
46230;SDS011;31949;51.404;-0.038;2022-11-20T16:04:00;11.88;;;3.08;;
46230;SDS011;31949;51.404;-0.038;2022-11-20T16:06:27;9.32;;;3.45;;
46230;SDS011;31949;51.404;-0.038;2022-11-20T16:08:57;13.95;;;4.13;;
46230;SDS011;31949;51.404;-0.038;2022-11-20T16:11:24;22.30;;;4.93;;
46230;SDS011;31949;51.404;-0.038;2022-11-20T16:13:52;8.68;;;2.88;;
46230;SDS011;31949;51.404;-0.038;2022-11-20T16:16:37;13.27;;;4.60;;
46230;SDS011;31949;51.404;-0.038;2022-11-20T16:19:13;10.55;;;4.25;;
46230;SDS011;31949;51.404;-0.038;2022-11-20T16:21:40;16.70;;;4.68;;
46230;SDS011;31949;51.404;-0.038;2022-11-20T16:24:09;15.93;;;5.78;;
46230;SDS011;31949;51.404;-0.038;2022-11-20T16:26:39;15.57;;;3.97;;
46230;SDS011;31949;51.404;-0.038;2022-11-20T16:29:07;11.38;;;3.15;;
46230;SDS011;31949;51.404;-0.038;2022-11-20T16:31:36;13.05;;;3.75;;
46230;SDS011;31949;51.404;-0.038;2022-11-20T16:34:04;11.48;;;3.80;;